createdAt,value
2018-11-27T00:01:55.563Z,14.65
2018-11-27T00:04:31.870Z,13.90
2018-11-27T00:07:07.508Z,14.78
2018-11-27T00:09:42.658Z,14.90
2018-11-27T00:12:17.751Z,14.98
2018-11-27T00:14:52.782Z,14.83
2018-11-27T00:17:27.415Z,14.07
2018-11-27T00:20:03.173Z,14.33
2018-11-27T00:22:38.766Z,14.35
2018-11-27T00:25:17.170Z,13.90
2018-11-27T00:27:52.643Z,14.28
2018-11-27T00:30:27.576Z,13.80
2018-11-27T00:33:02.508Z,14.20
2018-11-27T00:35:37.772Z,13.18
2018-11-27T00:38:12.866Z,13.20
2018-11-27T00:40:47.829Z,13.60
2018-11-27T00:43:22.816Z,13.90
2018-11-27T00:45:57.589Z,13.40
2018-11-27T00:48:33.048Z,12.80
2018-11-27T00:51:07.871Z,14.60
2018-11-27T00:53:42.936Z,15.00
2018-11-27T00:56:17.943Z,15.53
2018-11-27T00:58:52.663Z,15.63
2018-11-27T01:01:27.623Z,14.90
2018-11-27T01:04:02.432Z,14.70
2018-11-27T01:06:37.692Z,14.70
2018-11-27T01:09:12.860Z,14.90
2018-11-27T01:11:47.612Z,15.00
2018-11-27T01:14:22.503Z,15.03
2018-11-27T01:16:58.274Z,14.87
2018-11-27T01:19:33.143Z,13.50
2018-11-27T01:22:08.376Z,13.20
2018-11-27T01:24:43.608Z,16.87
2018-11-27T01:27:18.526Z,14.93
2018-11-27T01:29:54.156Z,14.93
2018-11-27T01:32:29.224Z,17.60
2018-11-27T01:35:04.194Z,16.97
2018-11-27T01:37:39.636Z,15.77
2018-11-27T01:40:16.455Z,16.48
2018-11-27T01:42:52.935Z,17.37
2018-11-27T01:45:27.932Z,17.67
2018-11-27T01:48:03.100Z,16.65
2018-11-27T01:50:38.081Z,16.42
2018-11-27T01:53:13.197Z,16.77
2018-11-27T01:55:48.452Z,17.23
2018-11-27T01:58:23.319Z,16.70
2018-11-27T02:00:58.236Z,16.62
2018-11-27T02:03:39.616Z,15.70
2018-11-27T02:06:14.757Z,16.37
2018-11-27T02:08:49.856Z,16.17
2018-11-27T02:11:24.827Z,16.00
2018-11-27T02:14:00.933Z,14.53
2018-11-27T02:16:35.861Z,13.43
2018-11-27T02:19:10.921Z,15.28
2018-11-27T02:21:46.148Z,14.87
2018-11-27T02:24:21.007Z,16.33
2018-11-27T02:26:56.002Z,16.10
2018-11-27T02:29:31.225Z,16.02
2018-11-27T02:32:06.906Z,16.60
2018-11-27T02:34:42.043Z,16.35
2018-11-27T02:37:17.609Z,15.95
2018-11-27T02:39:52.756Z,16.95
2018-11-27T02:42:27.952Z,17.00
2018-11-27T02:45:03.268Z,16.20
2018-11-27T02:47:38.797Z,16.57
2018-11-27T02:50:15.398Z,16.25
2018-11-27T02:52:50.237Z,15.80
2018-11-27T02:55:26.691Z,15.25
2018-11-27T02:58:01.485Z,15.72
2018-11-27T03:00:36.524Z,16.15
2018-11-27T03:03:11.385Z,16.23
2018-11-27T03:05:46.420Z,14.90
2018-11-27T03:08:22.674Z,14.33
2018-11-27T03:10:57.148Z,14.83
2018-11-27T03:13:31.846Z,14.67
2018-11-27T03:16:06.875Z,14.87
2018-11-27T03:18:41.945Z,15.25
2018-11-27T03:21:17.095Z,15.20
2018-11-27T03:23:51.977Z,15.50
2018-11-27T03:26:27.556Z,15.40
2018-11-27T03:29:02.405Z,15.20
2018-11-27T03:31:38.133Z,15.32
2018-11-27T03:34:13.740Z,14.35
2018-11-27T03:36:48.984Z,15.03
2018-11-27T03:39:24.532Z,14.83
2018-11-27T03:41:59.533Z,14.38
2018-11-27T03:44:34.749Z,15.55
2018-11-27T03:47:09.913Z,14.90
2018-11-27T03:49:45.005Z,14.75
2018-11-27T03:52:19.964Z,14.18
2018-11-27T03:54:54.866Z,13.50
2018-11-27T03:57:29.567Z,27.37
2018-11-27T04:00:36.683Z,14.38
2018-11-27T04:03:12.877Z,13.63
2018-11-27T04:05:47.791Z,13.48
2018-11-27T04:08:22.921Z,14.60
2018-11-27T04:10:57.596Z,13.55
2018-11-27T04:13:32.495Z,15.40
2018-11-27T04:16:08.534Z,14.20
2018-11-27T04:18:43.728Z,14.40
2018-11-27T04:21:18.973Z,14.05
2018-11-27T04:23:54.498Z,14.95
2018-11-27T04:26:29.693Z,14.78
2018-11-27T04:29:05.135Z,16.32
2018-11-27T04:31:40.312Z,15.88
2018-11-27T04:34:15.350Z,15.95
2018-11-27T04:36:50.469Z,18.62
2018-11-27T04:39:25.565Z,17.80
2018-11-27T04:42:00.721Z,17.87
2018-11-27T04:44:35.856Z,17.35
2018-11-27T04:47:10.893Z,18.90
2018-11-27T04:49:45.961Z,20.08
2018-11-27T04:52:20.987Z,21.30
2018-11-27T04:54:56.313Z,23.35
2018-11-27T04:57:31.696Z,22.48
2018-11-27T05:00:15.415Z,23.25
2018-11-27T05:02:50.883Z,23.32
2018-11-27T05:05:26.062Z,22.90
2018-11-27T05:08:00.837Z,22.55
2018-11-27T05:10:36.005Z,22.75
2018-11-27T05:13:11.124Z,21.73
2018-11-27T05:15:46.494Z,23.05
2018-11-27T05:18:21.534Z,23.05
2018-11-27T05:20:56.711Z,24.52
2018-11-27T05:23:31.671Z,24.00
2018-11-27T05:26:06.808Z,24.35
2018-11-27T05:28:41.928Z,23.42
2018-11-27T05:31:17.372Z,22.90
2018-11-27T05:33:52.456Z,21.45
2018-11-27T05:36:27.551Z,21.75
2018-11-27T05:39:02.556Z,22.00
2018-11-27T05:41:37.472Z,21.37
2018-11-27T05:44:17.604Z,21.42
2018-11-27T05:46:53.299Z,20.05
2018-11-27T05:49:28.395Z,20.43
2018-11-27T05:52:03.796Z,20.70
2018-11-27T05:54:38.832Z,20.05
2018-11-27T05:57:14.027Z,18.10
2018-11-27T05:59:48.664Z,18.50
2018-11-27T06:02:23.934Z,18.00
2018-11-27T06:04:59.072Z,22.55
2018-11-27T06:07:34.108Z,20.40
2018-11-27T06:10:10.843Z,19.62
2018-11-27T06:12:45.917Z,19.17
2018-11-27T06:15:22.035Z,17.30
2018-11-27T06:17:59.475Z,17.07
2018-11-27T06:20:34.897Z,16.57
2018-11-27T06:23:09.853Z,16.93
2018-11-27T06:25:44.805Z,16.97
2018-11-27T06:28:19.931Z,18.77
2018-11-27T06:30:55.150Z,17.60
2018-11-27T06:33:30.763Z,18.92
2018-11-27T06:36:06.643Z,36.38
2018-11-27T06:38:41.679Z,42.00
2018-11-27T06:41:17.502Z,29.32
2018-11-27T06:43:52.380Z,29.30
2018-11-27T06:46:28.315Z,25.37
2018-11-27T06:49:03.219Z,25.37
2018-11-27T06:51:38.063Z,21.87
2018-11-27T06:54:12.888Z,21.10
2018-11-27T06:56:48.436Z,23.25
2018-11-27T06:59:23.605Z,21.42
2018-11-27T07:01:58.557Z,22.60
2018-11-27T07:04:33.314Z,22.03
2018-11-27T07:07:08.064Z,20.43
2018-11-27T07:09:43.442Z,18.62
2018-11-27T07:12:18.481Z,20.90
2018-11-27T07:14:53.292Z,16.87
2018-11-27T07:17:28.190Z,18.98
2018-11-27T07:20:03.125Z,18.07
2018-11-27T07:22:38.424Z,17.30
2018-11-27T07:25:14.832Z,17.27
2018-11-27T07:27:50.376Z,17.03
2018-11-27T07:30:25.721Z,18.23
2018-11-27T07:33:00.760Z,16.62
2018-11-27T07:35:36.577Z,17.30
2018-11-27T07:38:11.447Z,16.82
2018-11-27T07:40:46.431Z,17.45
2018-11-27T07:43:21.330Z,17.60
2018-11-27T07:45:56.173Z,17.48
2018-11-27T07:48:32.536Z,17.23
2018-11-27T07:51:07.893Z,18.37
2018-11-27T07:53:42.584Z,17.92
2018-11-27T07:56:17.332Z,19.05
2018-11-27T07:58:52.229Z,18.95
2018-11-27T08:01:27.064Z,20.17
2018-11-27T08:04:02.033Z,21.73
2018-11-27T08:06:37.433Z,22.35
2018-11-27T08:09:12.704Z,20.15
2018-11-27T08:11:47.533Z,19.83
2018-11-27T08:14:22.601Z,18.70
2018-11-27T08:16:57.971Z,18.95
2018-11-27T08:19:33.467Z,20.95
2018-11-27T08:22:08.391Z,19.60
2018-11-27T08:24:43.243Z,18.90
2018-11-27T08:27:18.408Z,18.45
2018-11-27T08:29:53.570Z,19.85
2018-11-27T08:32:28.650Z,20.35
2018-11-27T08:35:03.853Z,20.80
2018-11-27T08:37:38.573Z,20.10
2018-11-27T08:40:14.903Z,19.50
2018-11-27T08:42:49.908Z,19.23
2018-11-27T08:45:25.606Z,20.08
2018-11-27T08:48:00.569Z,18.27
2018-11-27T08:50:36.006Z,17.50
2018-11-27T08:53:11.036Z,17.65
2018-11-27T08:55:46.327Z,17.23
2018-11-27T08:58:23.015Z,17.45
2018-11-27T09:00:57.967Z,17.50
2018-11-27T09:03:32.849Z,19.43
2018-11-27T09:06:07.945Z,18.57
2018-11-27T09:08:44.014Z,17.77
2018-11-27T09:11:17.973Z,17.67
2018-11-27T09:13:53.003Z,17.12
2018-11-27T09:16:27.725Z,17.50
2018-11-27T09:19:02.857Z,18.07
2018-11-27T09:21:37.616Z,19.23
2018-11-27T09:24:12.792Z,19.90
2018-11-27T09:26:47.944Z,20.17
2018-11-27T09:29:24.724Z,20.17
2018-11-27T09:31:59.040Z,20.60
2018-11-27T09:34:34.378Z,20.53
2018-11-27T09:37:10.115Z,20.35
2018-11-27T09:39:45.142Z,20.00
2018-11-27T09:42:20.163Z,19.65
2018-11-27T09:45:01.581Z,20.68
2018-11-27T09:47:36.651Z,20.70
2018-11-27T09:50:12.931Z,22.17
2018-11-27T09:52:48.778Z,21.23
2018-11-27T09:55:25.239Z,20.68
2018-11-27T09:58:00.056Z,20.50
2018-11-27T10:00:35.416Z,19.55
2018-11-27T10:03:13.213Z,20.35
2018-11-27T10:05:48.400Z,19.80
2018-11-27T10:08:23.545Z,19.45
2018-11-27T10:10:58.882Z,19.17
2018-11-27T10:13:34.013Z,19.73
2018-11-27T10:16:09.383Z,20.02
2018-11-27T10:18:44.123Z,18.93
2018-11-27T10:21:18.940Z,19.57
2018-11-27T10:23:55.033Z,19.90
2018-11-27T10:26:30.073Z,20.45
2018-11-27T10:29:05.532Z,21.85
2018-11-27T10:31:40.247Z,21.05
2018-11-27T10:34:15.048Z,20.90
2018-11-27T10:36:50.446Z,21.50
2018-11-27T10:39:25.600Z,22.32
2018-11-27T10:42:01.052Z,21.82
2018-11-27T10:44:36.518Z,21.05
2018-11-27T10:47:11.892Z,21.95
2018-11-27T10:49:46.866Z,20.15
2018-11-27T10:52:21.997Z,20.10
2018-11-27T10:54:57.551Z,20.70
2018-11-27T10:57:32.688Z,20.45
2018-11-27T11:00:20.637Z,20.35
2018-11-27T11:04:04.516Z,21.00
2018-11-27T11:06:39.356Z,20.77
2018-11-27T11:09:14.048Z,19.95
2018-11-27T11:11:48.788Z,20.15
2018-11-27T11:14:23.972Z,19.90
2018-11-27T11:16:59.442Z,19.70
2018-11-27T11:19:34.460Z,18.52
2018-11-27T11:22:09.377Z,18.85
2018-11-27T11:24:44.112Z,19.70
2018-11-27T11:27:19.052Z,19.77
2018-11-27T11:29:53.745Z,18.50
2018-11-27T11:32:28.622Z,18.50
2018-11-27T11:35:03.778Z,18.70
2018-11-27T11:37:38.487Z,21.40
2018-11-27T11:40:14.858Z,22.73
2018-11-27T11:42:52.625Z,19.73
2018-11-27T11:45:27.865Z,23.18
2018-11-27T11:48:02.871Z,22.30
2018-11-27T11:50:38.104Z,18.70
2018-11-27T11:53:17.192Z,31.00
2018-11-27T11:55:52.408Z,28.85
2018-11-27T11:58:27.689Z,22.70
2018-11-27T12:01:02.877Z,20.72
2018-11-27T12:03:37.891Z,18.80
2018-11-27T12:06:13.160Z,16.20
2018-11-27T12:08:47.856Z,18.75
2018-11-27T12:11:23.603Z,14.05
2018-11-27T12:13:58.387Z,14.33
2018-11-27T12:16:33.782Z,14.43
2018-11-27T12:19:08.588Z,14.17
2018-11-27T12:21:43.834Z,12.28
2018-11-27T12:24:18.913Z,12.88
2018-11-27T12:26:54.415Z,13.58
2018-11-27T12:29:29.542Z,14.50
2018-11-27T12:32:04.764Z,15.03
2018-11-27T12:34:39.702Z,17.27
2018-11-27T12:37:14.662Z,16.20
2018-11-27T12:39:50.081Z,15.70
2018-11-27T12:42:25.072Z,14.68
2018-11-27T12:45:00.004Z,14.85
2018-11-27T12:47:34.979Z,14.33
2018-11-27T12:50:17.347Z,14.95
2018-11-27T12:52:52.481Z,15.20
2018-11-27T12:55:27.718Z,17.00
2018-11-27T12:58:02.399Z,16.23
2018-11-27T13:00:37.878Z,15.85
2018-11-27T13:03:13.116Z,16.85
2018-11-27T13:05:48.129Z,16.60
2018-11-27T13:08:24.131Z,15.83
2018-11-27T13:10:59.255Z,16.25
2018-11-27T13:13:34.352Z,16.50
2018-11-27T13:16:09.255Z,16.40
2018-11-27T13:18:44.148Z,16.70
2018-11-27T13:21:18.961Z,17.07
2018-11-27T13:23:53.706Z,17.37
2018-11-27T13:26:28.736Z,15.58
2018-11-27T13:29:03.566Z,14.90
2018-11-27T13:31:38.457Z,13.40
2018-11-27T13:34:15.776Z,13.57
2018-11-27T13:36:51.636Z,13.30
2018-11-27T13:39:36.275Z,14.87
2018-11-27T13:42:11.402Z,14.13
2018-11-27T13:44:46.501Z,14.83
2018-11-27T13:47:21.655Z,12.98
2018-11-27T13:49:56.415Z,13.35
2018-11-27T13:52:31.776Z,13.28
2018-11-27T13:55:12.780Z,13.57
2018-11-27T13:57:47.752Z,14.03
2018-11-27T14:00:22.820Z,13.62
2018-11-27T14:02:57.474Z,12.70
2018-11-27T14:05:33.298Z,13.70
2018-11-27T14:08:09.032Z,13.00
2018-11-27T14:10:44.083Z,13.53
2018-11-27T14:13:19.892Z,14.05
2018-11-27T14:15:54.866Z,13.70
2018-11-27T14:18:29.828Z,15.25
2018-11-27T14:21:05.170Z,13.78
2018-11-27T14:23:40.225Z,14.85
2018-11-27T14:26:15.127Z,14.10
2018-11-27T14:28:50.177Z,14.40
2018-11-27T14:31:24.880Z,13.30
2018-11-27T14:33:59.707Z,13.15
2018-11-27T14:36:35.703Z,13.20
2018-11-27T14:39:10.891Z,14.15
2018-11-27T14:41:45.975Z,13.38
2018-11-27T14:44:20.906Z,13.62
2018-11-27T14:46:56.495Z,14.33
2018-11-27T14:49:31.444Z,14.15
2018-11-27T14:52:07.090Z,14.03
2018-11-27T14:54:42.686Z,13.72
2018-11-27T14:57:17.876Z,13.35
2018-11-27T14:59:52.908Z,13.55
2018-11-27T15:02:27.864Z,13.58
2018-11-27T15:05:02.703Z,12.90
2018-11-27T15:07:37.500Z,12.47
2018-11-27T15:10:12.973Z,13.10
2018-11-27T15:12:47.989Z,13.08
2018-11-27T15:15:23.123Z,12.98
2018-11-27T15:17:58.374Z,13.18
2018-11-27T15:20:33.625Z,13.50
2018-11-27T15:23:09.037Z,13.20
2018-11-27T15:25:44.222Z,13.60
2018-11-27T15:28:19.409Z,14.63
2018-11-27T15:30:54.771Z,14.63
2018-11-27T15:33:30.001Z,17.20
2018-11-27T15:36:05.338Z,17.30
2018-11-27T15:38:40.393Z,16.85
2018-11-27T15:41:15.287Z,16.70
2018-11-27T15:43:50.295Z,16.57
2018-11-27T15:46:26.276Z,15.68
2018-11-27T15:49:01.088Z,15.20
2018-11-27T15:51:35.909Z,13.83
2018-11-27T15:54:11.117Z,13.70
2018-11-27T15:56:46.283Z,16.93
2018-11-27T15:59:21.387Z,16.65
2018-11-27T16:01:56.301Z,15.93
2018-11-27T16:04:31.545Z,15.48
2018-11-27T16:07:07.141Z,15.18
2018-11-27T16:09:42.117Z,15.95
2018-11-27T16:12:17.217Z,34.58
2018-11-27T16:14:55.069Z,29.40
2018-11-27T16:17:30.150Z,23.47
2018-11-27T16:20:06.727Z,19.57
2018-11-27T16:22:42.340Z,20.02
2018-11-27T16:25:18.371Z,16.67
2018-11-27T16:27:53.388Z,14.63
2018-11-27T16:30:30.421Z,14.83
2018-11-27T16:33:05.626Z,15.20
2018-11-27T16:35:40.722Z,14.55
2018-11-27T16:38:15.864Z,14.03
2018-11-27T16:40:51.804Z,14.10
2018-11-27T16:43:27.103Z,13.60
2018-11-27T16:46:02.144Z,13.10
2018-11-27T16:48:37.122Z,12.50
2018-11-27T16:51:12.032Z,12.43
2018-11-27T16:53:46.840Z,13.53
2018-11-27T16:56:22.271Z,13.15
2018-11-27T16:58:57.366Z,13.28
2018-11-27T17:01:32.027Z,18.57
2018-11-27T17:04:08.025Z,13.83
2018-11-27T17:06:42.919Z,14.27
2018-11-27T17:09:18.103Z,12.60
2018-11-27T17:11:53.209Z,16.70
2018-11-27T17:14:28.262Z,28.62
2018-11-27T17:17:03.243Z,17.77
2018-11-27T17:19:38.045Z,16.90
2018-11-27T17:22:12.746Z,17.62
2018-11-27T17:24:47.680Z,24.95
2018-11-27T17:27:22.441Z,17.90
2018-11-27T17:29:57.415Z,15.20
2018-11-27T17:32:32.211Z,15.40
2018-11-27T17:35:08.847Z,13.63
2018-11-27T17:37:43.917Z,12.70
2018-11-27T17:40:19.105Z,12.30
2018-11-27T17:42:54.451Z,12.00
2018-11-27T17:45:29.271Z,16.93
2018-11-27T17:48:04.497Z,13.68
2018-11-27T17:50:39.516Z,12.55
2018-11-27T17:53:14.903Z,17.32
2018-11-27T17:55:50.941Z,23.65
2018-11-27T17:58:26.000Z,18.42
2018-11-27T18:01:01.225Z,22.05
2018-11-27T18:03:35.968Z,14.98
2018-11-27T18:06:11.429Z,15.93
2018-11-27T18:08:46.707Z,15.15
2018-11-27T18:11:22.278Z,19.63
2018-11-27T18:13:57.332Z,20.53
2018-11-27T18:16:32.130Z,66.37
2018-11-27T18:19:07.469Z,23.90
2018-11-27T18:21:42.489Z,23.35
2018-11-27T18:24:17.716Z,19.23
2018-11-27T18:26:52.596Z,15.57
2018-11-27T18:29:27.918Z,16.15
2018-11-27T18:32:03.038Z,16.35
2018-11-27T18:34:38.032Z,13.20
2018-11-27T18:37:12.997Z,12.30
2018-11-27T18:39:48.212Z,11.45
2018-11-27T18:42:23.553Z,13.53
2018-11-27T18:44:59.627Z,14.18
2018-11-27T18:47:34.593Z,14.10
2018-11-27T18:50:10.661Z,13.55
2018-11-27T18:52:45.642Z,16.80
2018-11-27T18:55:20.702Z,14.47
2018-11-27T18:57:55.962Z,15.83
2018-11-27T19:00:33.236Z,13.68
2018-11-27T19:03:08.118Z,14.80
2018-11-27T19:05:42.855Z,14.20
2018-11-27T19:08:18.051Z,14.03
2018-11-27T19:10:53.173Z,12.50
2018-11-27T19:13:28.418Z,16.15
2018-11-27T19:16:03.598Z,27.65
2018-11-27T19:18:38.830Z,14.70
2018-11-27T19:21:14.009Z,13.10
2018-11-27T19:23:49.316Z,13.00
2018-11-27T19:26:24.546Z,12.07
2018-11-27T19:29:00.521Z,12.47
2018-11-27T19:31:35.880Z,12.75
2018-11-27T19:34:11.329Z,12.55
2018-11-27T19:36:46.499Z,12.93
2018-11-27T19:39:21.682Z,13.08
2018-11-27T19:41:56.709Z,13.27
2018-11-27T19:44:31.978Z,12.80
2018-11-27T19:47:07.117Z,12.95
2018-11-27T19:49:42.619Z,12.63
2018-11-27T19:52:18.136Z,27.42
2018-11-27T19:54:53.653Z,27.85
2018-11-27T19:57:28.702Z,26.42
2018-11-27T20:00:04.914Z,26.02
2018-11-27T20:02:39.958Z,25.40
2018-11-27T20:05:16.300Z,21.25
2018-11-27T20:07:51.140Z,21.50
2018-11-27T20:10:26.884Z,21.27
2018-11-27T20:13:02.300Z,21.50
2018-11-27T20:15:37.737Z,22.85
2018-11-27T20:18:12.931Z,22.73
2018-11-27T20:20:48.078Z,22.62
2018-11-27T20:23:23.091Z,20.37
2018-11-27T20:25:58.379Z,15.98
2018-11-27T20:28:33.477Z,15.78
2018-11-27T20:31:08.448Z,15.93
2018-11-27T20:33:44.413Z,20.23
2018-11-27T20:36:19.605Z,21.00
2018-11-27T20:38:54.759Z,18.10
2018-11-27T20:41:29.823Z,18.27
2018-11-27T20:44:04.977Z,14.75
2018-11-27T20:46:40.151Z,16.90
2018-11-27T20:49:15.313Z,15.63
2018-11-27T20:51:50.143Z,15.13
2018-11-27T20:54:25.139Z,15.55
2018-11-27T20:57:01.101Z,15.18
2018-11-27T20:59:36.266Z,15.75
2018-11-27T21:02:11.363Z,16.25
2018-11-27T21:04:46.311Z,18.00
2018-11-27T21:07:21.185Z,18.73
2018-11-27T21:09:56.093Z,17.70
2018-11-27T21:12:31.322Z,17.50
2018-11-27T21:15:09.017Z,21.40
2018-11-27T21:17:44.379Z,17.75
2018-11-27T21:20:19.662Z,18.55
2018-11-27T21:22:54.298Z,18.53
2018-11-27T21:25:29.583Z,20.77
2018-11-27T21:28:08.002Z,20.82
2018-11-27T21:30:43.921Z,19.67
2018-11-27T21:33:19.093Z,25.50
2018-11-27T21:35:53.953Z,26.02
2018-11-27T21:38:29.573Z,28.02
2018-11-27T21:41:04.573Z,22.82
2018-11-27T21:43:39.482Z,19.40
2018-11-27T21:46:14.398Z,18.87
2018-11-27T21:48:49.392Z,17.77
2018-11-27T21:51:24.155Z,17.63
2018-11-27T21:53:59.395Z,16.82
2018-11-27T21:56:34.565Z,17.00
2018-11-27T21:59:09.414Z,17.20
2018-11-27T22:01:44.364Z,17.70
2018-11-27T22:04:19.275Z,16.77
2018-11-27T22:06:54.311Z,16.90
2018-11-27T22:09:28.987Z,16.50
2018-11-27T22:12:04.577Z,17.95
2018-11-27T22:14:39.340Z,18.60
2018-11-27T22:17:14.559Z,19.13
2018-11-27T22:19:49.328Z,19.10
2018-11-27T22:22:24.112Z,18.13
2018-11-27T22:24:58.846Z,16.75
2018-11-27T22:27:33.808Z,17.43
2018-11-27T22:30:15.013Z,17.90
2018-11-27T22:32:52.710Z,16.48
2018-11-27T22:35:27.948Z,15.08
2018-11-27T22:38:03.702Z,14.07
2018-11-27T22:40:38.545Z,14.45
2018-11-27T22:43:13.661Z,13.95
2018-11-27T22:45:48.669Z,14.60
2018-11-27T22:48:23.525Z,14.33
2018-11-27T22:50:58.257Z,14.25
2018-11-27T22:53:33.760Z,13.90
2018-11-27T22:56:09.018Z,15.32
2018-11-27T22:58:43.816Z,16.67
2018-11-27T23:01:18.536Z,17.52
2018-11-27T23:03:53.690Z,17.20
2018-11-27T23:06:28.805Z,17.37
2018-11-27T23:09:06.396Z,18.82
2018-11-27T23:11:41.671Z,18.15
2018-11-27T23:14:16.732Z,15.83
2018-11-27T23:16:51.855Z,15.08
2018-11-27T23:19:27.071Z,15.80
2018-11-27T23:22:02.168Z,16.95
2018-11-27T23:24:43.729Z,15.93
2018-11-27T23:27:18.744Z,17.07
2018-11-27T23:29:53.929Z,14.98
2018-11-27T23:32:29.606Z,14.75
2018-11-27T23:35:05.257Z,14.47
2018-11-27T23:37:40.228Z,14.87
2018-11-27T23:40:18.177Z,14.78
2018-11-27T23:42:53.539Z,15.55
2018-11-27T23:45:28.360Z,15.47
2018-11-27T23:48:03.633Z,15.60
2018-11-27T23:50:38.716Z,15.30
2018-11-27T23:53:14.200Z,15.55
2018-11-27T23:55:49.313Z,15.90
2018-11-27T23:58:24.080Z,15.30
